sensor_id;sensor_type;location;lat;lon;timestamp;pressure;altitude;pressure_sealevel;temperature;humidity
64644;BME280;51056;50.330;7.914;2023-09-18T00:00:07;99875.25;;;18.12;96.57
64644;BME280;51056;50.330;7.914;2023-09-18T00:03:14;99872.63;;;18.12;96.28
64644;BME280;51056;50.330;7.914;2023-09-18T00:06:17;99872.09;;;17.99;96.96
64644;BME280;51056;50.330;7.914;2023-09-18T00:09:22;99862.59;;;18.06;96.59
64644;BME280;51056;50.330;7.914;2023-09-18T00:12:26;99856.94;;;18.01;96.83
64644;BME280;51056;50.330;7.914;2023-09-18T00:15:31;99850.94;;;17.99;95.85
64644;BME280;51056;50.330;7.914;2023-09-18T00:18:34;99857.34;;;17.96;96.47
64644;BME280;51056;50.330;7.914;2023-09-18T00:21:37;99843.19;;;17.87;96.74
64644;BME280;51056;50.330;7.914;2023-09-18T00:24:41;99844.41;;;17.93;95.99
64644;BME280;51056;50.330;7.914;2023-09-18T00:27:44;99845.16;;;17.85;96.05
64644;BME280;51056;50.330;7.914;2023-09-18T00:30:48;99840.84;;;17.75;96.89
64644;BME280;51056;50.330;7.914;2023-09-18T00:33:52;99848.50;;;17.78;97.29
64644;BME280;51056;50.330;7.914;2023-09-18T00:36:56;99837.94;;;17.78;96.69
64644;BME280;51056;50.330;7.914;2023-09-18T00:39:59;99822.75;;;17.70;97.31
64644;BME280;51056;50.330;7.914;2023-09-18T00:43:02;99812.03;;;17.72;96.69
64644;BME280;51056;50.330;7.914;2023-09-18T00:46:06;99808.28;;;17.74;96.41
64644;BME280;51056;50.330;7.914;2023-09-18T00:49:09;99813.16;;;17.69;97.10
64644;BME280;51056;50.330;7.914;2023-09-18T00:52:20;99805.66;;;17.64;96.59
64644;BME280;51056;50.330;7.914;2023-09-18T00:55:30;99810.09;;;17.64;96.07
64644;BME280;51056;50.330;7.914;2023-09-18T00:58:34;99806.34;;;17.57;96.78
64644;BME280;51056;50.330;7.914;2023-09-18T01:01:38;99806.78;;;17.62;96.12
64644;BME280;51056;50.330;7.914;2023-09-18T01:04:42;99809.53;;;17.60;96.68
64644;BME280;51056;50.330;7.914;2023-09-18T01:07:47;99800.38;;;17.55;96.59
64644;BME280;51056;50.330;7.914;2023-09-18T01:11:24;99809.16;;;17.55;96.76
64644;BME280;51056;50.330;7.914;2023-09-18T01:15:19;99810.94;;;17.55;97.38
64644;BME280;51056;50.330;7.914;2023-09-18T01:17:56;99807.44;;;17.64;96.48
64644;BME280;51056;50.330;7.914;2023-09-18T01:20:59;99799.13;;;17.59;96.16
64644;BME280;51056;50.330;7.914;2023-09-18T01:24:03;99801.34;;;17.54;97.03
64644;BME280;51056;50.330;7.914;2023-09-18T01:27:10;99801.78;;;17.59;97.14
64644;BME280;51056;50.330;7.914;2023-09-18T01:30:13;99808.44;;;17.63;97.02
64644;BME280;51056;50.330;7.914;2023-09-18T01:33:20;99796.16;;;17.72;96.41
64644;BME280;51056;50.330;7.914;2023-09-18T01:36:24;99788.91;;;17.74;96.28
64644;BME280;51056;50.330;7.914;2023-09-18T01:39:28;99788.38;;;17.70;96.25
64644;BME280;51056;50.330;7.914;2023-09-18T01:42:34;99793.66;;;17.70;96.92
64644;BME280;51056;50.330;7.914;2023-09-18T01:45:38;99794.19;;;17.74;96.58
64644;BME280;51056;50.330;7.914;2023-09-18T01:48:46;99808.94;;;17.76;96.33
64644;BME280;51056;50.330;7.914;2023-09-18T01:51:50;99863.25;;;17.61;98.01
64644;BME280;51056;50.330;7.914;2023-09-18T01:54:53;99879.66;;;17.45;100.00
64644;BME280;51056;50.330;7.914;2023-09-18T01:57:58;99866.47;;;17.35;100.00
64644;BME280;51056;50.330;7.914;2023-09-18T02:01:01;99871.63;;;17.47;100.00
64644;BME280;51056;50.330;7.914;2023-09-18T02:04:06;99866.03;;;17.69;100.00
64644;BME280;51056;50.330;7.914;2023-09-18T02:07:09;99859.34;;;17.84;100.00
64644;BME280;51056;50.330;7.914;2023-09-18T02:10:12;99852.75;;;17.98;100.00
64644;BME280;51056;50.330;7.914;2023-09-18T02:13:16;99840.06;;;18.02;100.00
64644;BME280;51056;50.330;7.914;2023-09-18T02:16:20;99834.13;;;18.00;100.00
64644;BME280;51056;50.330;7.914;2023-09-18T02:19:26;99822.13;;;17.96;100.00
64644;BME280;51056;50.330;7.914;2023-09-18T02:22:31;99805.69;;;18.02;100.00
64644;BME280;51056;50.330;7.914;2023-09-18T02:25:35;99795.97;;;17.93;100.00
64644;BME280;51056;50.330;7.914;2023-09-18T02:28:38;99759.94;;;17.92;100.00
64644;BME280;51056;50.330;7.914;2023-09-18T02:31:42;99740.84;;;17.98;100.00
64644;BME280;51056;50.330;7.914;2023-09-18T02:34:45;99743.78;;;17.95;100.00
64644;BME280;51056;50.330;7.914;2023-09-18T02:37:48;99752.44;;;17.87;100.00
64644;BME280;51056;50.330;7.914;2023-09-18T02:40:51;99754.09;;;17.88;100.00
64644;BME280;51056;50.330;7.914;2023-09-18T02:43:55;99745.06;;;17.91;100.00
64644;BME280;51056;50.330;7.914;2023-09-18T02:46:59;99752.69;;;17.94;100.00
64644;BME280;51056;50.330;7.914;2023-09-18T02:50:02;99738.63;;;17.93;100.00
64644;BME280;51056;50.330;7.914;2023-09-18T02:53:16;99733.19;;;17.95;100.00
64644;BME280;51056;50.330;7.914;2023-09-18T02:56:19;99732.22;;;17.96;100.00
64644;BME280;51056;50.330;7.914;2023-09-18T02:59:23;99735.34;;;17.81;100.00
64644;BME280;51056;50.330;7.914;2023-09-18T03:02:26;99731.81;;;17.53;100.00
64644;BME280;51056;50.330;7.914;2023-09-18T03:05:31;99726.41;;;17.35;100.00
64644;BME280;51056;50.330;7.914;2023-09-18T03:08:34;99719.88;;;17.39;100.00
64644;BME280;51056;50.330;7.914;2023-09-18T03:11:39;99729.44;;;17.50;100.00
64644;BME280;51056;50.330;7.914;2023-09-18T03:14:42;99737.75;;;17.65;100.00
64644;BME280;51056;50.330;7.914;2023-09-18T03:17:45;99741.94;;;17.58;100.00
64644;BME280;51056;50.330;7.914;2023-09-18T03:20:48;99748.03;;;17.68;100.00
64644;BME280;51056;50.330;7.914;2023-09-18T03:23:51;99747.22;;;17.77;100.00
64644;BME280;51056;50.330;7.914;2023-09-18T03:26:55;99748.56;;;17.81;100.00
64644;BME280;51056;50.330;7.914;2023-09-18T03:29:58;99747.84;;;17.89;100.00
64644;BME280;51056;50.330;7.914;2023-09-18T03:33:01;99760.75;;;17.92;100.00
64644;BME280;51056;50.330;7.914;2023-09-18T03:36:05;99753.28;;;17.87;100.00
64644;BME280;51056;50.330;7.914;2023-09-18T03:39:11;99747.69;;;17.91;100.00
64644;BME280;51056;50.330;7.914;2023-09-18T03:42:14;99744.91;;;17.92;100.00
64644;BME280;51056;50.330;7.914;2023-09-18T03:45:18;99743.09;;;17.93;100.00
64644;BME280;51056;50.330;7.914;2023-09-18T03:48:24;99739.75;;;17.91;100.00
64644;BME280;51056;50.330;7.914;2023-09-18T03:51:31;99739.22;;;17.87;100.00
64644;BME280;51056;50.330;7.914;2023-09-18T03:54:34;99739.66;;;17.82;100.00
64644;BME280;51056;50.330;7.914;2023-09-18T03:57:39;99740.88;;;17.88;100.00
64644;BME280;51056;50.330;7.914;2023-09-18T04:00:42;99743.13;;;17.83;100.00
64644;BME280;51056;50.330;7.914;2023-09-18T04:03:46;99736.31;;;17.80;100.00
64644;BME280;51056;50.330;7.914;2023-09-18T04:06:49;99728.38;;;17.80;100.00
64644;BME280;51056;50.330;7.914;2023-09-18T04:09:53;99723.94;;;17.81;100.00
64644;BME280;51056;50.330;7.914;2023-09-18T04:12:56;99714.50;;;17.78;100.00
64644;BME280;51056;50.330;7.914;2023-09-18T04:16:00;99721.03;;;17.74;100.00
64644;BME280;51056;50.330;7.914;2023-09-18T04:19:03;99724.81;;;17.62;100.00
64644;BME280;51056;50.330;7.914;2023-09-18T04:22:07;99723.72;;;17.55;100.00
64644;BME280;51056;50.330;7.914;2023-09-18T04:25:11;99717.84;;;17.61;100.00
64644;BME280;51056;50.330;7.914;2023-09-18T04:28:16;99712.44;;;17.62;100.00
64644;BME280;51056;50.330;7.914;2023-09-18T04:31:20;99700.19;;;17.61;100.00
64644;BME280;51056;50.330;7.914;2023-09-18T04:34:24;99699.59;;;17.67;100.00
64644;BME280;51056;50.330;7.914;2023-09-18T04:37:28;99685.94;;;17.72;100.00
64644;BME280;51056;50.330;7.914;2023-09-18T04:40:31;99669.03;;;17.65;100.00
64644;BME280;51056;50.330;7.914;2023-09-18T04:43:35;99662.22;;;17.62;100.00
64644;BME280;51056;50.330;7.914;2023-09-18T04:46:39;99648.81;;;17.64;100.00
64644;BME280;51056;50.330;7.914;2023-09-18T04:49:46;99634.66;;;17.65;100.00
64644;BME280;51056;50.330;7.914;2023-09-18T04:52:53;99628.84;;;17.61;100.00
64644;BME280;51056;50.330;7.914;2023-09-18T04:55:58;99622.56;;;17.62;100.00
64644;BME280;51056;50.330;7.914;2023-09-18T04:59:02;99621.44;;;17.65;100.00
64644;BME280;51056;50.330;7.914;2023-09-18T05:02:07;99619.22;;;17.60;100.00
64644;BME280;51056;50.330;7.914;2023-09-18T05:05:14;99624.38;;;17.62;100.00
64644;BME280;51056;50.330;7.914;2023-09-18T05:08:17;99641.75;;;17.64;100.00
64644;BME280;51056;50.330;7.914;2023-09-18T05:11:21;99655.41;;;17.60;100.00
64644;BME280;51056;50.330;7.914;2023-09-18T05:14:25;99672.41;;;17.48;100.00
64644;BME280;51056;50.330;7.914;2023-09-18T05:17:50;99677.28;;;17.52;100.00
64644;BME280;51056;50.330;7.914;2023-09-18T05:21:01;99698.13;;;17.55;100.00
64644;BME280;51056;50.330;7.914;2023-09-18T05:24:11;99712.56;;;17.61;100.00
64644;BME280;51056;50.330;7.914;2023-09-18T05:27:18;99725.44;;;17.46;100.00
64644;BME280;51056;50.330;7.914;2023-09-18T05:30:25;99710.50;;;17.55;100.00
64644;BME280;51056;50.330;7.914;2023-09-18T05:33:31;99696.06;;;17.49;100.00
64644;BME280;51056;50.330;7.914;2023-09-18T05:36:59;99688.34;;;17.28;100.00
64644;BME280;51056;50.330;7.914;2023-09-18T05:40:14;99705.56;;;17.32;100.00
64644;BME280;51056;50.330;7.914;2023-09-18T05:43:18;99710.84;;;17.32;100.00
64644;BME280;51056;50.330;7.914;2023-09-18T05:46:22;99700.28;;;17.32;100.00
64644;BME280;51056;50.330;7.914;2023-09-18T05:49:25;99688.97;;;17.50;100.00
64644;BME280;51056;50.330;7.914;2023-09-18T05:52:30;99651.09;;;17.59;100.00
64644;BME280;51056;50.330;7.914;2023-09-18T05:55:33;99665.38;;;17.66;100.00
64644;BME280;51056;50.330;7.914;2023-09-18T05:58:37;99682.03;;;17.76;100.00
64644;BME280;51056;50.330;7.914;2023-09-18T06:01:41;99693.09;;;17.62;100.00
64644;BME280;51056;50.330;7.914;2023-09-18T06:04:45;99704.59;;;17.71;100.00
64644;BME280;51056;50.330;7.914;2023-09-18T06:07:49;99708.22;;;17.70;100.00
64644;BME280;51056;50.330;7.914;2023-09-18T06:10:52;99695.41;;;17.84;100.00
64644;BME280;51056;50.330;7.914;2023-09-18T06:13:55;99677.25;;;17.89;100.00
64644;BME280;51056;50.330;7.914;2023-09-18T06:16:59;99691.47;;;17.88;100.00
64644;BME280;51056;50.330;7.914;2023-09-18T06:20:02;99697.88;;;17.86;100.00
64644;BME280;51056;50.330;7.914;2023-09-18T06:23:07;99696.34;;;17.83;100.00
64644;BME280;51056;50.330;7.914;2023-09-18T06:26:10;99705.38;;;17.91;100.00
64644;BME280;51056;50.330;7.914;2023-09-18T06:29:15;99689.47;;;18.00;100.00
64644;BME280;51056;50.330;7.914;2023-09-18T06:32:19;99699.28;;;18.08;100.00
64644;BME280;51056;50.330;7.914;2023-09-18T06:35:22;99699.09;;;18.19;100.00
64644;BME280;51056;50.330;7.914;2023-09-18T06:38:26;99698.94;;;18.21;100.00
64644;BME280;51056;50.330;7.914;2023-09-18T06:41:29;99714.69;;;18.22;100.00
64644;BME280;51056;50.330;7.914;2023-09-18T06:44:33;99709.69;;;18.19;100.00
64644;BME280;51056;50.330;7.914;2023-09-18T06:47:36;99728.19;;;18.19;100.00
64644;BME280;51056;50.330;7.914;2023-09-18T06:50:40;99733.56;;;18.27;100.00
64644;BME280;51056;50.330;7.914;2023-09-18T06:53:44;99723.22;;;18.34;100.00
64644;BME280;51056;50.330;7.914;2023-09-18T06:56:48;99738.06;;;18.45;100.00
64644;BME280;51056;50.330;7.914;2023-09-18T06:59:51;99728.59;;;18.42;100.00
64644;BME280;51056;50.330;7.914;2023-09-18T07:02:57;99720.00;;;18.58;100.00
64644;BME280;51056;50.330;7.914;2023-09-18T07:06:01;99742.81;;;18.59;100.00
64644;BME280;51056;50.330;7.914;2023-09-18T07:09:04;99738.28;;;18.69;100.00
64644;BME280;51056;50.330;7.914;2023-09-18T07:12:09;99721.34;;;18.62;100.00
64644;BME280;51056;50.330;7.914;2023-09-18T07:15:13;99738.28;;;18.69;100.00
64644;BME280;51056;50.330;7.914;2023-09-18T07:18:16;99725.28;;;18.76;100.00
64644;BME280;51056;50.330;7.914;2023-09-18T07:21:20;99726.38;;;18.83;100.00
64644;BME280;51056;50.330;7.914;2023-09-18T07:24:24;99751.47;;;18.97;100.00
64644;BME280;51056;50.330;7.914;2023-09-18T07:27:27;99749.81;;;18.96;100.00
64644;BME280;51056;50.330;7.914;2023-09-18T07:30:30;99755.34;;;19.02;100.00
64644;BME280;51056;50.330;7.914;2023-09-18T07:33:34;99756.91;;;19.13;100.00
64644;BME280;51056;50.330;7.914;2023-09-18T07:36:39;99756.28;;;19.19;100.00
64644;BME280;51056;50.330;7.914;2023-09-18T07:39:44;99776.25;;;19.32;100.00
64644;BME280;51056;50.330;7.914;2023-09-18T07:42:47;99765.13;;;19.28;100.00
64644;BME280;51056;50.330;7.914;2023-09-18T07:45:50;99751.63;;;19.39;95.21
64644;BME280;51056;50.330;7.914;2023-09-18T07:48:54;99753.41;;;19.57;94.70
64644;BME280;51056;50.330;7.914;2023-09-18T07:51:57;99757.56;;;19.59;92.32
64644;BME280;51056;50.330;7.914;2023-09-18T07:55:00;99767.53;;;19.65;97.84
64644;BME280;51056;50.330;7.914;2023-09-18T07:58:04;99760.88;;;19.61;100.00
64644;BME280;51056;50.330;7.914;2023-09-18T08:01:08;99773.16;;;19.62;98.22
64644;BME280;51056;50.330;7.914;2023-09-18T08:04:13;99797.09;;;19.70;93.15
64644;BME280;51056;50.330;7.914;2023-09-18T08:07:16;99790.84;;;19.80;91.21
64644;BME280;51056;50.330;7.914;2023-09-18T08:10:19;99799.31;;;19.83;90.25
64644;BME280;51056;50.330;7.914;2023-09-18T08:13:23;99794.38;;;19.88;89.87
64644;BME280;51056;50.330;7.914;2023-09-18T08:16:28;99805.50;;;19.92;89.04
64644;BME280;51056;50.330;7.914;2023-09-18T08:19:32;99808.50;;;19.97;89.10
64644;BME280;51056;50.330;7.914;2023-09-18T08:22:35;99792.25;;;20.00;88.97
64644;BME280;51056;50.330;7.914;2023-09-18T08:25:41;99805.53;;;20.00;89.15
64644;BME280;51056;50.330;7.914;2023-09-18T08:28:47;99832.25;;;19.98;93.21
64644;BME280;51056;50.330;7.914;2023-09-18T08:31:50;99837.50;;;19.90;90.57
64644;BME280;51056;50.330;7.914;2023-09-18T08:34:54;99829.22;;;19.93;88.65
64644;BME280;51056;50.330;7.914;2023-09-18T08:37:57;99814.88;;;20.04;86.98
64644;BME280;51056;50.330;7.914;2023-09-18T08:41:01;99817.84;;;20.09;86.51
64644;BME280;51056;50.330;7.914;2023-09-18T08:44:07;99820.06;;;20.14;85.21
64644;BME280;51056;50.330;7.914;2023-09-18T08:47:14;99826.88;;;20.25;89.68
64644;BME280;51056;50.330;7.914;2023-09-18T08:50:19;99826.50;;;20.11;91.33
64644;BME280;51056;50.330;7.914;2023-09-18T08:53:23;99825.19;;;20.15;90.17
64644;BME280;51056;50.330;7.914;2023-09-18T08:56:28;99819.84;;;20.07;87.04
64644;BME280;51056;50.330;7.914;2023-09-18T08:59:32;99816.34;;;20.07;85.39
64644;BME280;51056;50.330;7.914;2023-09-18T09:02:35;99822.13;;;20.02;86.10
64644;BME280;51056;50.330;7.914;2023-09-18T09:05:39;99824.41;;;19.97;85.74
64644;BME280;51056;50.330;7.914;2023-09-18T09:08:45;99814.53;;;20.07;86.06
64644;BME280;51056;50.330;7.914;2023-09-18T09:11:50;99817.50;;;20.04;89.06
64644;BME280;51056;50.330;7.914;2023-09-18T09:15:12;99825.78;;;20.01;87.33
64644;BME280;51056;50.330;7.914;2023-09-18T09:18:15;99838.88;;;20.03;85.94
64644;BME280;51056;50.330;7.914;2023-09-18T09:21:19;99842.75;;;20.08;84.52
64644;BME280;51056;50.330;7.914;2023-09-18T09:24:40;99832.31;;;20.15;84.96
64644;BME280;51056;50.330;7.914;2023-09-18T09:27:50;99825.03;;;20.17;84.48
64644;BME280;51056;50.330;7.914;2023-09-18T09:31:00;99844.78;;;20.23;84.65
64644;BME280;51056;50.330;7.914;2023-09-18T09:34:04;99848.41;;;20.13;85.02
64644;BME280;51056;50.330;7.914;2023-09-18T09:37:09;99829.84;;;20.13;83.61
64644;BME280;51056;50.330;7.914;2023-09-18T09:40:13;99824.34;;;20.15;84.31
64644;BME280;51056;50.330;7.914;2023-09-18T09:43:17;99824.72;;;20.20;82.62
64644;BME280;51056;50.330;7.914;2023-09-18T09:46:23;99819.25;;;20.21;85.93
64644;BME280;51056;50.330;7.914;2023-09-18T09:49:28;99824.75;;;20.28;85.45
64644;BME280;51056;50.330;7.914;2023-09-18T09:52:33;99822.91;;;20.29;83.41
64644;BME280;51056;50.330;7.914;2023-09-18T09:55:37;99821.56;;;20.25;83.72
64644;BME280;51056;50.330;7.914;2023-09-18T09:58:41;99832.56;;;20.30;84.13
64644;BME280;51056;50.330;7.914;2023-09-18T10:01:47;99838.72;;;20.38;83.32
64644;BME280;51056;50.330;7.914;2023-09-18T10:04:53;99841.25;;;20.48;82.10
64644;BME280;51056;50.330;7.914;2023-09-18T10:07:57;99827.72;;;20.59;81.62
64644;BME280;51056;50.330;7.914;2023-09-18T10:11:09;99840.34;;;20.65;82.12
64644;BME280;51056;50.330;7.914;2023-09-18T10:14:20;99827.72;;;20.67;82.41
64644;BME280;51056;50.330;7.914;2023-09-18T10:17:24;99846.81;;;20.63;82.92
64644;BME280;51056;50.330;7.914;2023-09-18T10:20:30;99852.28;;;20.61;81.66
64644;BME280;51056;50.330;7.914;2023-09-18T10:24:05;99857.75;;;20.52;80.75
64644;BME280;51056;50.330;7.914;2023-09-18T10:27:13;99846.94;;;20.53;80.68
64644;BME280;51056;50.330;7.914;2023-09-18T10:30:19;99847.31;;;20.66;80.20
64644;BME280;51056;50.330;7.914;2023-09-18T10:33:23;99857.16;;;20.74;80.26
64644;BME280;51056;50.330;7.914;2023-09-18T10:36:27;99854.81;;;20.79;79.70
64644;BME280;51056;50.330;7.914;2023-09-18T10:39:35;99860.31;;;20.78;79.47
64644;BME280;51056;50.330;7.914;2023-09-18T10:42:40;99866.94;;;20.82;80.02
64644;BME280;51056;50.330;7.914;2023-09-18T10:45:44;99858.25;;;20.63;80.27
64644;BME280;51056;50.330;7.914;2023-09-18T10:48:48;99856.28;;;20.74;79.76
64644;BME280;51056;50.330;7.914;2023-09-18T10:51:56;99860.78;;;20.65;80.70
64644;BME280;51056;50.330;7.914;2023-09-18T10:55:00;99852.34;;;20.78;80.04
64644;BME280;51056;50.330;7.914;2023-09-18T10:58:06;99851.50;;;20.77;80.19
64644;BME280;51056;50.330;7.914;2023-09-18T11:01:12;99853.25;;;20.60;80.64
64644;BME280;51056;50.330;7.914;2023-09-18T11:04:20;99843.00;;;20.74;79.84
64644;BME280;51056;50.330;7.914;2023-09-18T11:07:24;99833.91;;;20.84;80.10
64644;BME280;51056;50.330;7.914;2023-09-18T11:10:28;99827.28;;;20.97;78.55
64644;BME280;51056;50.330;7.914;2023-09-18T11:13:35;99840.41;;;20.98;78.62
64644;BME280;51056;50.330;7.914;2023-09-18T11:16:38;99846.41;;;21.08;77.86
64644;BME280;51056;50.330;7.914;2023-09-18T11:19:44;99848.75;;;21.20;77.73
64644;BME280;51056;50.330;7.914;2023-09-18T11:22:49;99846.94;;;21.28;77.19
64644;BME280;51056;50.330;7.914;2023-09-18T11:25:58;99852.94;;;21.39;76.68
64644;BME280;51056;50.330;7.914;2023-09-18T11:29:04;99852.44;;;21.35;76.36
64644;BME280;51056;50.330;7.914;2023-09-18T11:32:08;99843.56;;;21.34;76.78
64644;BME280;51056;50.330;7.914;2023-09-18T11:35:12;99827.97;;;21.31;75.98
64644;BME280;51056;50.330;7.914;2023-09-18T11:38:16;99837.13;;;21.29;76.00
64644;BME280;51056;50.330;7.914;2023-09-18T11:41:25;99834.28;;;21.47;75.68
64644;BME280;51056;50.330;7.914;2023-09-18T11:47:32;99836.09;;;21.79;73.48
64644;BME280;51056;50.330;7.914;2023-09-18T11:50:41;99833.22;;;22.05;73.05
64644;BME280;51056;50.330;7.914;2023-09-18T11:53:45;99814.69;;;22.20;72.30
64644;BME280;51056;50.330;7.914;2023-09-18T11:56:49;99821.66;;;22.29;73.23
64644;BME280;51056;50.330;7.914;2023-09-18T11:59:52;99807.03;;;22.25;71.36
64644;BME280;51056;50.330;7.914;2023-09-18T12:02:56;99807.22;;;22.55;72.28
64644;BME280;51056;50.330;7.914;2023-09-18T12:06:02;99806.56;;;22.21;69.09
64644;BME280;51056;50.330;7.914;2023-09-18T12:09:08;99811.06;;;22.21;69.33
64644;BME280;51056;50.330;7.914;2023-09-18T12:12:16;99811.00;;;22.29;69.31
64644;BME280;51056;50.330;7.914;2023-09-18T12:15:20;99829.88;;;22.50;69.22
64644;BME280;51056;50.330;7.914;2023-09-18T12:18:24;99824.31;;;22.37;69.61
64644;BME280;51056;50.330;7.914;2023-09-18T12:21:28;99827.31;;;22.26;70.04
64644;BME280;51056;50.330;7.914;2023-09-18T12:24:31;99843.88;;;22.05;70.92
64644;BME280;51056;50.330;7.914;2023-09-18T12:27:36;99847.59;;;21.79;71.53
64644;BME280;51056;50.330;7.914;2023-09-18T12:30:39;99833.75;;;21.84;71.83
64644;BME280;51056;50.330;7.914;2023-09-18T12:33:44;99829.19;;;22.09;70.95
64644;BME280;51056;50.330;7.914;2023-09-18T12:36:50;99830.34;;;22.23;69.89
64644;BME280;51056;50.330;7.914;2023-09-18T12:39:54;99811.59;;;22.47;68.81
64644;BME280;51056;50.330;7.914;2023-09-18T12:42:58;99802.69;;;22.86;67.39
64644;BME280;51056;50.330;7.914;2023-09-18T12:46:07;99801.53;;;23.50;64.85
64644;BME280;51056;50.330;7.914;2023-09-18T12:49:20;99799.66;;;23.88;63.57
64644;BME280;51056;50.330;7.914;2023-09-18T12:52:24;99805.16;;;24.46;61.27
64644;BME280;51056;50.330;7.914;2023-09-18T12:55:29;99796.75;;;24.85;59.97
64644;BME280;51056;50.330;7.914;2023-09-18T12:58:33;99796.22;;;24.39;61.17
64644;BME280;51056;50.330;7.914;2023-09-18T13:01:36;99794.19;;;23.52;64.62
64644;BME280;51056;50.330;7.914;2023-09-18T13:04:41;99799.88;;;23.11;65.78
64644;BME280;51056;50.330;7.914;2023-09-18T13:07:45;99797.66;;;22.91;66.30
64644;BME280;51056;50.330;7.914;2023-09-18T13:10:48;99796.00;;;22.90;65.98
64644;BME280;51056;50.330;7.914;2023-09-18T13:13:58;99789.97;;;22.96;66.07
64644;BME280;51056;50.330;7.914;2023-09-18T13:17:03;99803.31;;;22.96;65.91
64644;BME280;51056;50.330;7.914;2023-09-18T13:20:22;99789.97;;;22.96;65.08
64644;BME280;51056;50.330;7.914;2023-09-18T13:23:31;99783.53;;;23.14;64.96
64644;BME280;51056;50.330;7.914;2023-09-18T13:26:34;99781.38;;;23.09;67.36
64644;BME280;51056;50.330;7.914;2023-09-18T13:29:38;99779.78;;;23.23;64.83
64644;BME280;51056;50.330;7.914;2023-09-18T13:32:41;99778.00;;;23.15;65.22
64644;BME280;51056;50.330;7.914;2023-09-18T13:35:45;99774.53;;;24.85;57.99
64644;BME280;51056;50.330;7.914;2023-09-18T13:38:49;99760.31;;;25.05;58.26
64644;BME280;51056;50.330;7.914;2023-09-18T13:41:52;99750.75;;;32.00;39.57
64644;BME280;51056;50.330;7.914;2023-09-18T13:44:57;99759.09;;;28.07;46.89
64644;BME280;51056;50.330;7.914;2023-09-18T13:48:02;99745.97;;;31.90;39.88
64644;BME280;51056;50.330;7.914;2023-09-18T13:51:05;99749.19;;;28.00;45.87
64644;BME280;51056;50.330;7.914;2023-09-18T13:54:10;99749.09;;;27.49;48.67
64644;BME280;51056;50.330;7.914;2023-09-18T13:57:13;99749.91;;;28.27;46.10
64644;BME280;51056;50.330;7.914;2023-09-18T14:00:19;99740.81;;;28.67;45.50
64644;BME280;51056;50.330;7.914;2023-09-18T14:03:26;99729.28;;;33.90;34.77
64644;BME280;51056;50.330;7.914;2023-09-18T14:06:32;99724.03;;;31.16;38.36
64644;BME280;51056;50.330;7.914;2023-09-18T14:09:36;99726.97;;;28.63;43.98
64644;BME280;51056;50.330;7.914;2023-09-18T14:12:44;99718.34;;;26.58;49.31
64644;BME280;51056;50.330;7.914;2023-09-18T14:15:47;99721.69;;;24.87;54.00
64644;BME280;51056;50.330;7.914;2023-09-18T14:18:50;99718.38;;;24.27;56.75
64644;BME280;51056;50.330;7.914;2023-09-18T14:21:57;99721.59;;;24.01;58.04
64644;BME280;51056;50.330;7.914;2023-09-18T14:25:02;99725.00;;;24.67;57.68
64644;BME280;51056;50.330;7.914;2023-09-18T14:28:09;99715.00;;;25.54;53.64
64644;BME280;51056;50.330;7.914;2023-09-18T14:31:12;99711.47;;;24.32;57.38
64644;BME280;51056;50.330;7.914;2023-09-18T14:34:15;99708.66;;;24.19;57.10
64644;BME280;51056;50.330;7.914;2023-09-18T14:37:19;99699.66;;;26.10;53.97
64644;BME280;51056;50.330;7.914;2023-09-18T14:40:22;99710.78;;;25.38;59.03
64644;BME280;51056;50.330;7.914;2023-09-18T14:43:25;99696.84;;;28.80;47.72
64644;BME280;51056;50.330;7.914;2023-09-18T14:46:29;99683.72;;;32.93;36.13
64644;BME280;51056;50.330;7.914;2023-09-18T14:49:32;99687.28;;;31.03;39.40
64644;BME280;51056;50.330;7.914;2023-09-18T14:52:36;99681.53;;;34.11;33.88
64644;BME280;51056;50.330;7.914;2023-09-18T14:55:39;99683.88;;;31.08;41.11
64644;BME280;51056;50.330;7.914;2023-09-18T14:58:43;99682.16;;;27.61;47.42
64644;BME280;51056;50.330;7.914;2023-09-18T15:01:46;99686.47;;;26.29;55.32
64644;BME280;51056;50.330;7.914;2023-09-18T15:04:52;99681.81;;;25.48;59.72
64644;BME280;51056;50.330;7.914;2023-09-18T15:07:55;99672.16;;;25.47;60.82
64644;BME280;51056;50.330;7.914;2023-09-18T15:10:58;99670.03;;;27.38;56.51
64644;BME280;51056;50.330;7.914;2023-09-18T15:14:02;99657.03;;;26.42;58.79
64644;BME280;51056;50.330;7.914;2023-09-18T15:17:06;99657.19;;;29.37;49.56
64644;BME280;51056;50.330;7.914;2023-09-18T15:20:11;99650.16;;;29.54;48.50
64644;BME280;51056;50.330;7.914;2023-09-18T15:23:16;99663.47;;;26.54;56.93
64644;BME280;51056;50.330;7.914;2023-09-18T15:26:20;99657.59;;;25.21;60.55
64644;BME280;51056;50.330;7.914;2023-09-18T15:29:23;99662.22;;;24.20;65.69
64644;BME280;51056;50.330;7.914;2023-09-18T15:32:27;99665.28;;;23.81;66.03
64644;BME280;51056;50.330;7.914;2023-09-18T15:35:30;99650.13;;;24.61;65.33
64644;BME280;51056;50.330;7.914;2023-09-18T15:38:35;99644.56;;;24.62;59.27
64644;BME280;51056;50.330;7.914;2023-09-18T15:41:39;99648.53;;;24.45;63.87
64644;BME280;51056;50.330;7.914;2023-09-18T15:44:42;99648.81;;;25.75;60.28
64644;BME280;51056;50.330;7.914;2023-09-18T15:47:46;99654.00;;;25.42;61.28
64644;BME280;51056;50.330;7.914;2023-09-18T15:50:50;99658.16;;;24.03;65.38
64644;BME280;51056;50.330;7.914;2023-09-18T15:53:53;99650.28;;;23.65;66.76
64644;BME280;51056;50.330;7.914;2023-09-18T15:56:57;99658.47;;;23.34;68.98
64644;BME280;51056;50.330;7.914;2023-09-18T16:00:03;99662.00;;;22.96;70.40
64644;BME280;51056;50.330;7.914;2023-09-18T16:03:15;99661.34;;;22.57;73.00
64644;BME280;51056;50.330;7.914;2023-09-18T16:06:19;99658.16;;;22.38;73.32
64644;BME280;51056;50.330;7.914;2023-09-18T16:09:24;99655.88;;;22.27;74.17
64644;BME280;51056;50.330;7.914;2023-09-18T16:12:27;99665.13;;;22.16;74.50
64644;BME280;51056;50.330;7.914;2023-09-18T16:15:31;99658.97;;;22.16;74.82
64644;BME280;51056;50.330;7.914;2023-09-18T16:18:35;99659.28;;;22.13;75.54